Aviation Digital Data Service (ADDS)

Output produced by TAFs form (0615 UTC 23 August 2017)
found at http://aviationweather.gov/adds/tafs/
 
KCNM 230539Z 2306/2406 03008KT P6SM SCT090 BKN300 
     TEMPO 2309/2312 BKN040